createdAt,value
2023-04-02T00:00:11.612Z,4.80
2023-04-02T00:04:03.303Z,4.75
2023-04-02T00:07:58.653Z,4.74
2023-04-02T01:09:30.368Z,4.25
2023-04-02T01:13:22.710Z,4.20
2023-04-02T01:28:58.574Z,4.02
2023-04-02T01:32:47.709Z,3.94
2023-04-02T01:36:29.456Z,3.89
2023-04-02T01:40:31.064Z,3.84
2023-04-02T01:44:37.334Z,3.80
2023-04-02T01:52:07.898Z,3.71
2023-04-02T02:22:44.342Z,3.38
2023-04-02T02:26:33.460Z,3.33
2023-04-02T02:30:22.576Z,3.25
2023-04-02T02:34:11.431Z,3.19
2023-04-02T02:37:55.338Z,3.18
2023-04-02T02:41:44.247Z,3.18
2023-04-02T02:45:33.868Z,3.19
2023-04-02T02:49:24.732Z,3.21
2023-04-02T02:52:57.416Z,3.23
2023-04-02T02:56:48.698Z,3.24
2023-04-02T03:00:39.132Z,3.26
2023-04-02T03:16:43.631Z,3.35
2023-04-02T03:20:44.685Z,3.33
2023-04-02T03:24:35.287Z,3.33
2023-04-02T03:36:37.950Z,3.36
2023-04-02T03:40:39.529Z,3.35
2023-04-02T04:00:23.222Z,3.36
2023-04-02T04:04:24.353Z,3.35
2023-04-02T04:08:16.719Z,3.33
2023-04-02T04:12:12.349Z,3.32
2023-04-02T04:16:01.817Z,3.30
2023-04-02T04:19:52.221Z,3.29
2023-04-02T04:23:40.266Z,3.29
2023-04-02T04:35:45.463Z,3.35
2023-04-02T04:39:34.854Z,3.35
2023-04-02T04:43:24.164Z,3.35
2023-04-02T04:47:19.791Z,3.36
2023-04-02T04:51:11.797Z,3.36
2023-04-02T04:55:01.752Z,3.38
2023-04-02T04:59:02.914Z,3.40
2023-04-02T05:02:56.013Z,3.40
2023-04-02T05:06:48.000Z,3.39
2023-04-02T05:26:01.434Z,3.43
2023-04-02T05:29:38.230Z,3.42
2023-04-02T05:33:18.090Z,3.41
2023-04-02T05:36:56.125Z,3.42
2023-04-02T05:40:28.429Z,3.39
2023-04-02T05:43:50.891Z,3.39
2023-04-02T05:47:18.671Z,3.39
2023-04-02T05:50:44.080Z,3.38
2023-04-02T05:54:24.546Z,3.37
2023-04-02T06:02:17.847Z,3.36
2023-04-02T06:06:05.877Z,3.38
2023-04-02T06:10:02.931Z,3.38
2023-04-02T06:13:43.653Z,3.39
2023-04-02T06:17:00.491Z,3.37
2023-04-02T06:20:25.827Z,3.35
2023-04-02T06:24:14.704Z,3.31
2023-04-02T06:34:44.050Z,3.26
2023-04-02T06:38:12.700Z,3.26
2023-04-02T06:42:04.571Z,3.23
2023-04-02T06:45:41.504Z,3.19
2023-04-02T06:49:24.065Z,3.18
2023-04-02T06:53:14.008Z,3.18
2023-04-02T06:56:57.639Z,3.21
2023-04-02T07:00:48.837Z,3.25
2023-04-02T07:04:39.469Z,3.28
2023-04-02T07:08:03.092Z,3.32
2023-04-02T07:11:56.454Z,3.35
2023-04-02T07:19:30.289Z,3.40
2023-04-02T07:23:22.201Z,3.43
2023-04-02T08:23:48.294Z,3.96
2023-04-02T08:27:37.770Z,3.93
2023-04-02T08:31:25.152Z,3.92
2023-04-02T08:35:02.167Z,3.89
2023-04-02T08:38:51.301Z,3.90
2023-04-02T08:42:58.460Z,3.94
2023-04-02T08:46:42.089Z,4.02
2023-04-02T08:50:56.756Z,4.09
2023-04-02T09:10:14.587Z,4.54
2023-04-02T09:13:46.600Z,4.64
2023-04-02T09:17:15.447Z,4.69
2023-04-02T09:20:47.630Z,4.73
2023-04-02T09:24:25.527Z,4.67
2023-04-02T09:28:06.832Z,4.68
2023-04-02T09:31:52.533Z,4.67
2023-04-02T09:35:52.897Z,4.65
2023-04-02T09:39:27.162Z,4.65
2023-04-02T09:42:59.331Z,4.74
2023-04-02T10:04:47.820Z,5.17
2023-04-02T10:12:08.107Z,5.13
2023-04-02T10:15:43.883Z,5.09
2023-04-02T10:19:20.952Z,5.03
2023-04-02T10:22:40.117Z,5.00
2023-04-02T10:26:18.230Z,5.02
2023-04-02T10:30:10.786Z,5.05
2023-04-02T10:34:02.103Z,5.05
2023-04-02T10:48:39.566Z,5.11
2023-04-02T10:52:15.116Z,5.05
2023-04-02T10:56:07.872Z,4.96
2023-04-02T10:59:58.169Z,4.96
2023-04-02T11:18:36.751Z,5.56
2023-04-02T11:22:10.697Z,5.57
2023-04-02T11:25:41.638Z,5.62
2023-04-02T11:29:19.134Z,5.57
2023-04-02T11:33:35.859Z,5.57
2023-04-02T11:37:30.754Z,5.60
2023-04-02T11:40:41.933Z,5.65
2023-04-02T12:02:15.483Z,5.98
2023-04-02T12:06:10.970Z,6.00
2023-04-02T12:10:04.683Z,5.99
2023-04-02T12:13:59.910Z,5.98
2023-04-02T12:17:21.770Z,6.00
2023-04-02T12:21:00.115Z,6.02
2023-04-02T12:24:17.215Z,6.08
2023-04-02T12:27:56.866Z,6.16
2023-04-02T12:34:35.097Z,6.04
2023-04-02T12:37:53.250Z,5.96
2023-04-02T12:41:08.310Z,5.86
2023-04-02T12:44:21.442Z,5.78
2023-04-02T12:47:28.695Z,5.70
2023-04-02T12:50:34.325Z,5.66
2023-04-02T12:53:54.056Z,5.69
2023-04-02T12:57:08.045Z,5.72
2023-04-02T13:00:06.545Z,5.72
2023-04-02T13:03:39.623Z,5.74
2023-04-02T13:06:47.866Z,5.80
2023-04-02T13:10:10.441Z,5.85
2023-04-02T13:13:12.511Z,5.89
2023-04-02T13:16:20.843Z,5.92
2023-04-02T13:19:10.708Z,5.96
2023-04-02T13:22:11.436Z,6.01
2023-04-02T13:24:56.502Z,6.10
2023-04-02T13:27:38.411Z,6.14
2023-04-02T13:31:01.129Z,6.19
2023-04-02T13:34:00.147Z,6.23
2023-04-02T13:36:49.205Z,6.28
2023-04-02T13:39:31.818Z,6.29
2023-04-02T13:42:34.600Z,6.28
2023-04-02T13:45:45.318Z,6.28
2023-04-02T13:48:34.939Z,6.28
2023-04-02T13:51:37.042Z,6.26
2023-04-02T13:55:07.018Z,6.24
2023-04-02T13:58:19.231Z,6.24
2023-04-02T14:01:23.687Z,6.23
2023-04-02T14:04:28.807Z,6.21
2023-04-02T14:07:39.782Z,6.17
2023-04-02T14:11:26.702Z,6.15
2023-04-02T14:14:49.750Z,6.10
2023-04-02T14:33:10.544Z,5.94
2023-04-02T14:37:11.897Z,5.91
2023-04-02T14:40:57.688Z,5.89
2023-04-02T14:44:47.780Z,5.90
2023-04-02T15:00:13.882Z,5.89
2023-04-02T15:03:49.521Z,5.83
2023-04-02T15:07:09.213Z,5.80
2023-04-02T15:10:26.643Z,5.78
2023-04-02T15:17:51.206Z,5.79
2023-04-02T15:21:20.358Z,5.74
2023-04-02T15:25:11.552Z,5.71
2023-04-02T15:29:28.809Z,5.68
2023-04-02T15:32:51.590Z,5.65
2023-04-02T15:36:33.155Z,5.63
2023-04-02T16:00:07.394Z,5.57
2023-04-02T16:04:02.518Z,5.55
2023-04-02T16:07:48.192Z,5.56
2023-04-02T16:23:00.575Z,5.64
2023-04-02T16:26:53.332Z,5.62
2023-04-02T16:30:41.203Z,5.61
2023-04-02T16:34:29.617Z,5.61
2023-04-02T16:47:03.187Z,5.63
2023-04-02T16:50:39.521Z,5.60
2023-04-02T16:54:30.565Z,5.57
2023-04-02T16:58:17.409Z,5.55
2023-04-02T17:02:00.607Z,5.53
2023-04-02T17:21:13.061Z,5.41
2023-04-02T17:25:02.025Z,5.36
2023-04-02T17:28:51.121Z,5.33
2023-04-02T17:32:20.961Z,5.32
2023-04-02T17:36:08.215Z,5.32
2023-04-02T17:39:52.760Z,5.28
2023-04-02T17:56:06.572Z,5.17
2023-04-02T17:59:38.644Z,5.13
2023-04-02T18:15:50.312Z,4.95
2023-04-02T18:19:44.297Z,4.89
2023-04-02T18:23:50.874Z,4.87
2023-04-02T18:43:24.881Z,4.84
2023-04-02T18:47:26.065Z,4.79
2023-04-02T18:50:58.722Z,4.77
2023-04-02T18:54:49.541Z,4.73
2023-04-02T18:58:18.434Z,4.67
2023-04-02T19:02:07.796Z,4.63
2023-04-02T19:06:09.565Z,4.60
2023-04-02T19:10:00.681Z,4.54
2023-04-02T19:25:29.767Z,4.21
2023-04-02T19:29:37.175Z,4.11
2023-04-02T19:45:13.487Z,3.71
2023-04-02T19:49:00.316Z,3.59
2023-04-02T19:52:42.304Z,3.49
2023-04-02T19:56:20.518Z,3.41
2023-04-02T20:00:02.027Z,3.30
2023-04-02T20:03:51.291Z,3.21
2023-04-02T20:07:40.149Z,3.12
2023-04-02T20:11:12.213Z,3.04
2023-04-02T20:15:01.390Z,2.97
2023-04-02T20:18:26.615Z,2.87
2023-04-02T20:22:15.768Z,2.82
2023-04-02T20:25:58.689Z,2.75
2023-04-02T20:29:47.863Z,2.68
2023-04-02T20:33:20.004Z,2.61
2023-04-02T20:36:46.470Z,2.53
2023-04-02T20:40:36.080Z,2.46
2023-04-02T20:44:25.344Z,2.40
2023-04-02T20:48:14.802Z,2.34
2023-04-02T20:51:36.940Z,2.29
2023-04-02T20:55:26.135Z,2.26
2023-04-02T20:59:00.432Z,2.21
2023-04-02T21:02:42.624Z,2.17
2023-04-02T21:06:31.867Z,2.12
2023-04-02T21:10:21.004Z,2.07
2023-04-02T21:14:10.103Z,2.01
2023-04-02T21:17:59.208Z,1.94
2023-04-02T21:21:48.596Z,1.88
2023-04-02T21:25:38.020Z,1.83
2023-04-02T21:29:21.198Z,1.76
2023-04-02T21:33:09.164Z,1.70
2023-04-02T21:36:47.454Z,1.63
2023-04-02T21:40:18.188Z,1.57
2023-04-02T21:43:57.426Z,1.51
2023-04-02T21:47:45.817Z,1.46
2023-04-02T21:51:35.380Z,1.40
2023-04-02T21:55:24.468Z,1.35
2023-04-02T21:59:13.632Z,1.30
2023-04-02T22:03:02.877Z,1.25
2023-04-02T22:06:54.955Z,1.24
2023-04-02T22:10:44.384Z,1.20
2023-04-02T22:14:33.248Z,1.17
2023-04-02T22:18:22.344Z,1.13
2023-04-02T22:22:11.437Z,1.07
2023-04-02T22:26:00.541Z,1.02
2023-04-02T22:29:42.972Z,0.98
2023-04-02T22:33:32.113Z,0.94
2023-04-02T22:37:17.222Z,0.90
2023-04-02T22:41:06.690Z,0.86
2023-04-02T22:44:55.830Z,0.79
2023-04-02T22:48:45.129Z,0.75
2023-04-02T22:52:17.615Z,0.74
2023-04-02T22:56:06.975Z,0.75
2023-04-02T22:59:56.255Z,0.74
2023-04-02T23:03:45.412Z,0.75
2023-04-02T23:07:34.518Z,0.76
2023-04-02T23:11:16.698Z,0.75
2023-04-02T23:15:06.002Z,0.76
2023-04-02T23:18:55.363Z,0.77
2023-04-02T23:22:44.507Z,0.79
2023-04-02T23:26:48.950Z,0.80
2023-04-02T23:30:38.434Z,0.81
2023-04-02T23:34:20.433Z,0.82
2023-04-02T23:38:10.837Z,0.80
2023-04-02T23:41:59.309Z,0.79
2023-04-02T23:45:58.387Z,0.77
